Hlavní strana
METAR-TAF:

METAR-TAF

Letiště :

Lakselv, Norsko

zeměpisná šířka: 70-04N, zeměpisná délka: 024-59E, výška: 0 m

Aktuální stav počasí

Zpráva byla vytvořena před 19 minutami, v 22:20 UTC
Západoseverozápadní vítr 19 kt
Teplota 2°C
Vlhkost vzduchu 69%
Tlak 965 hPa
Viditelnost 10 km a více
Skoro jasno ve výšce 4500 ft

METAR: ENNA 172220Z 30019KT 9999 FEW045 02/M03 Q0965 RMK WIND 1800FT 29028KT

Čas: 23:39 (22:39 UTC)

Předpověď počasí

Předpověď platná od 17 v 18 UTC do 18 v 18 UTC
Severozápadní vítr 18 kt
Viditelnost 10 km a více
Skoro jasno ve výšce 1000 ft
Oblačno až skoro zataženo ve výšce 3000 ft
Dočasný
od 17 v 18 UTC do 17 v 24 UTC
Severozápadní vítr 20 kt s nárazy do 30 kt
Viditelnost: 2000 m
ve výšce 900 ft
sněhové přeháňky, nízko zvířený sníh
Pravděpodobnost 40% :
Dočasný
od 18 v 00 UTC do 18 v 18 UTC
Viditelnost: 4000 m
ve výšce 1200 ft
slabé sněhové přeháňky

TAF: ENNA 1718/1818 32018KT 9999 FEW010 BKN030 TEMPO 1718/1724 31020G30KT 2000 SHSN DRSN VV009 PROB40 TEMPO 1800/1818 4000 -SHSN VV012

Stav a předpovědi počasí z více než 4 000 letišť (zprávy METAR a TAF).

Červené a žluté tečky na mapě představují dostupné meteorologické stanice.

Když kurzor umístíte na tečku, zobrazí se název stanice.

Pak kliknutím zobrazíte stav a předpověď počasí.

Chcete-li změnit mapu, kliknutím na zelené tlačítko se znaménkem +mapu přiblížíte, kliknutím na zelené tlačítko se znaménkem – mapu oddálíte a kliknutím na zelené šipky přejdete na sousední mapy.


METAR-TAF: